Alexanr Zhitnik — EMBN — position and weather

sailwx.info

Track history (hours):
 
Tides and Currents Weather Stations Pressure Air Temp Water Temp Dewpoint Dewpoint Depression Visibility Wind Speed Wind Dir Waves Ship Positions

Alexanr Zhitnik

Last reported at 2014-Jul-23 04:04 UTC. Time now 2014-Jul-23 13:34 UTC.
Position N 46°35' E 031°17'.

Length 85 m; draft 2.3 m.

Type: Cargo ship. MMSI: 272089600.

Date/timePositionNaut miles runAvg speedWind from/ knotsBaromVisibWave heightAir tempDewpointWater temp
2014-Jul-23 04:04N 46°35' E 031°17'2 4.4
2014-Jul-23 03:33N 46°35' E 031°20'5 5.0
2014-Jul-23 02:33N 46°35' E 031°27'6 5.4
2014-Jul-23 01:27N 46°35' E 031°36'6 6.2
2014-Jul-23 00:33N 46°36' E 031°44'6 6.1
2014-Jul-22 23:33N 46°35' E 031°53'5 5.0
2014-Jul-22 22:33N 46°33' E 031°60'5 4.7
2014-Jul-22 21:33N 46°32' E 032°06'5 4.9
2014-Jul-22 20:33N 46°33' E 032°13'42 1.1
2014-Jul-21 05:33N 46°47' E 033°10'  
2014-Jul-17 18:23N 46°33' E 032°23'4 5.2
2014-Jul-17 17:34N 46°33' E 032°17'6 6.3
2014-Jul-17 16:33N 46°32' E 032°08'1 1.4
2014-Jul-17 15:33N 46°32' E 032°06'0 0.0
2014-Jul-17 14:33N 46°32' E 032°06'2 2.2
2014-Jul-17 13:33N 46°32' E 032°03'11 5.4
2014-Jul-17 11:26N 46°36' E 031°47'5 5.6
2014-Jul-17 10:33N 46°35' E 031°40'38 3.8
2014-Jul-17 00:29N 46°31' E 030°44'0 0.0
2014-Jul-16 16:14N 46°31' E 030°44'5 0.1
2014-Jul-15 03:30N 46°31' E 030°51'28 5.6
2014-Jul-14 22:30N 46°35' E 031°31'6 6.0
2014-Jul-14 21:33N 46°36' E 031°39'2 1.8
2014-Jul-14 20:16N 46°36' E 031°43'0 0.0
2014-Jul-14 19:33N 46°36' E 031°43'2 1.6
2014-Jul-14 18:33N 46°36' E 031°45'6 5.9
2014-Jul-14 17:33N 46°35' E 031°53'6 5.8
2014-Jul-14 16:33N 46°33' E 032°01'6 5.6
2014-Jul-14 15:31N 46°32' E 032°10'  
Track history (hours):
 
Tides and Currents Weather Stations Pressure Air Temp Water Temp Dewpoint Dewpoint Depression Visibility Wind Speed Wind Dir Waves Ship Positions

Alexanr Zhitnik

Last reported at 2014-Jul-23 04:04 UTC. Time now 2014-Jul-23 13:34 UTC.
Position N 46°35' E 031°17'.

Length 85 m; draft 2.3 m.

Type: Cargo ship. MMSI: 272089600.

Date/timePositionNaut miles runAvg speedWind from/ knotsBaromVisibWave heightAir tempDewpointWater temp
2014-Jul-23 04:04N 46°35' E 031°17'2 4.4
2014-Jul-23 03:33N 46°35' E 031°20'5 5.0
2014-Jul-23 02:33N 46°35' E 031°27'6 5.4
2014-Jul-23 01:27N 46°35' E 031°36'6 6.2
2014-Jul-23 00:33N 46°36' E 031°44'6 6.1
2014-Jul-22 23:33N 46°35' E 031°53'5 5.0
2014-Jul-22 22:33N 46°33' E 031°60'5 4.7
2014-Jul-22 21:33N 46°32' E 032°06'5 4.9
2014-Jul-22 20:33N 46°33' E 032°13'42 1.1
2014-Jul-21 05:33N 46°47' E 033°10'  
2014-Jul-17 18:23N 46°33' E 032°23'4 5.2
2014-Jul-17 17:34N 46°33' E 032°17'6 6.3
2014-Jul-17 16:33N 46°32' E 032°08'1 1.4
2014-Jul-17 15:33N 46°32' E 032°06'0 0.0
2014-Jul-17 14:33N 46°32' E 032°06'2 2.2
2014-Jul-17 13:33N 46°32' E 032°03'11 5.4
2014-Jul-17 11:26N 46°36' E 031°47'5 5.6
2014-Jul-17 10:33N 46°35' E 031°40'38 3.8
2014-Jul-17 00:29N 46°31' E 030°44'0 0.0
2014-Jul-16 16:14N 46°31' E 030°44'5 0.1
2014-Jul-15 03:30N 46°31' E 030°51'28 5.6
2014-Jul-14 22:30N 46°35' E 031°31'6 6.0
2014-Jul-14 21:33N 46°36' E 031°39'2 1.8
2014-Jul-14 20:16N 46°36' E 031°43'0 0.0
2014-Jul-14 19:33N 46°36' E 031°43'2 1.6
2014-Jul-14 18:33N 46°36' E 031°45'6 5.9
2014-Jul-14 17:33N 46°35' E 031°53'6 5.8
2014-Jul-14 16:33N 46°33' E 032°01'6 5.6
2014-Jul-14 15:31N 46°32' E 032°10'  

Dump ship's entire track history